createdAt,value
2023-05-09T00:00:15.958Z,98989.27
2023-05-09T00:01:42.769Z,98990.40
2023-05-09T00:02:50.315Z,98991.63
2023-05-09T00:03:57.321Z,98991.85
2023-05-09T00:05:04.652Z,98994.95
2023-05-09T00:06:11.310Z,98991.95
2023-05-09T00:07:18.085Z,98994.48
2023-05-09T00:08:24.629Z,98994.42
2023-05-09T00:09:31.912Z,98991.95
2023-05-09T00:10:38.860Z,98994.27
2023-05-09T00:11:45.824Z,98994.80
2023-05-09T00:12:52.721Z,98992.80
2023-05-09T00:13:59.734Z,98994.10
2023-05-09T00:15:09.497Z,98993.02
2023-05-09T00:16:16.961Z,98993.34
2023-05-09T00:17:25.772Z,98995.61
2023-05-09T00:18:32.546Z,98995.23
2023-05-09T00:19:40.299Z,98992.86
2023-05-09T00:20:47.796Z,98992.50
2023-05-09T00:21:54.530Z,98991.85
2023-05-09T00:23:02.003Z,98992.76
2023-05-09T00:24:10.610Z,98992.27
2023-05-09T00:25:19.074Z,98990.94
2023-05-09T00:26:26.496Z,98995.71
2023-05-09T00:27:36.044Z,98992.44
2023-05-09T00:28:42.920Z,98994.95
2023-05-09T00:29:49.601Z,98996.52
2023-05-09T00:30:56.405Z,98992.77
2023-05-09T00:32:04.146Z,98996.37
2023-05-09T00:33:11.173Z,98995.60
2023-05-09T00:34:18.324Z,98995.60
2023-05-09T00:35:25.550Z,98993.45
2023-05-09T00:36:33.412Z,98993.40
2023-05-09T00:37:40.533Z,98993.13
2023-05-09T00:38:47.389Z,98994.20
2023-05-09T00:39:54.562Z,98995.73
2023-05-09T00:41:01.460Z,98995.23
2023-05-09T00:42:08.897Z,98992.11
2023-05-09T00:43:15.953Z,98993.13
2023-05-09T00:44:22.906Z,98992.42
2023-05-09T00:45:30.936Z,98992.98
2023-05-09T00:46:37.819Z,98989.38
2023-05-09T00:47:48.022Z,98985.94
2023-05-09T00:48:55.122Z,98989.22
2023-05-09T00:50:01.989Z,98989.21
2023-05-09T00:51:09.133Z,98986.70
2023-05-09T00:52:16.805Z,98989.53
2023-05-09T00:53:25.124Z,98992.21
2023-05-09T00:54:31.994Z,98992.44
2023-05-09T00:55:38.952Z,98992.86
2023-05-09T00:56:46.181Z,98992.70
2023-05-09T00:57:52.990Z,98992.11
2023-05-09T00:59:00.126Z,98991.90
2023-05-09T01:00:08.345Z,98995.49
2023-05-09T01:01:14.884Z,98994.58
2023-05-09T01:02:25.207Z,98992.80
2023-05-09T01:03:33.011Z,98992.80
2023-05-09T01:04:40.009Z,98992.06
2023-05-09T01:05:59.856Z,98989.54
2023-05-09T01:07:13.690Z,98988.03
2023-05-09T01:08:46.341Z,98989.65
2023-05-09T01:10:17.735Z,98986.22
2023-05-09T01:11:37.462Z,98987.89
2023-05-09T01:13:01.546Z,98983.27
2023-05-09T01:14:34.314Z,98982.41
2023-05-09T01:15:58.827Z,98983.33
2023-05-09T01:17:24.047Z,98983.48
2023-05-09T01:18:39.889Z,98981.88
2023-05-09T01:20:14.373Z,98979.73
2023-05-09T01:21:30.517Z,98976.12
2023-05-09T01:22:39.101Z,98972.20
2023-05-09T01:24:02.342Z,98973.61
2023-05-09T01:25:48.301Z,98974.47
2023-05-09T01:27:24.869Z,98973.83
2023-05-09T01:29:05.709Z,98975.27
2023-05-09T01:30:15.065Z,98973.66
2023-05-09T01:31:22.577Z,98973.28
2023-05-09T01:32:31.181Z,98972.41
2023-05-09T01:33:41.516Z,98972.57
2023-05-09T01:34:49.967Z,98973.05
2023-05-09T01:36:06.887Z,98976.27
2023-05-09T01:37:17.452Z,98973.96
2023-05-09T01:38:25.665Z,98976.70
2023-05-09T01:39:34.438Z,98976.02
2023-05-09T01:40:43.158Z,98975.30
2023-05-09T01:41:52.009Z,98976.55
2023-05-09T01:43:05.907Z,98978.32
2023-05-09T01:44:14.828Z,98979.39
2023-05-09T01:45:22.879Z,98979.71
2023-05-09T01:46:30.685Z,98977.02
2023-05-09T01:47:38.387Z,98979.29
2023-05-09T01:48:46.266Z,98982.51
2023-05-09T01:49:53.137Z,98979.61
2023-05-09T01:51:00.889Z,98980.35
2023-05-09T01:52:13.796Z,98979.45
2023-05-09T01:53:20.989Z,98979.45
2023-05-09T01:54:30.703Z,98979.13
2023-05-09T01:55:38.618Z,98981.27
2023-05-09T01:56:45.773Z,98980.15
2023-05-09T01:57:54.266Z,98979.08
2023-05-09T01:59:02.724Z,98983.91
2023-05-09T02:00:11.545Z,98980.90
2023-05-09T02:01:22.202Z,98982.14
2023-05-09T02:02:29.969Z,98984.44
2023-05-09T02:03:37.528Z,98985.36
2023-05-09T02:04:46.320Z,98984.98
2023-05-09T02:05:53.686Z,98983.90
2023-05-09T02:07:01.766Z,98982.41
2023-05-09T02:08:10.273Z,98983.90
2023-05-09T02:09:17.798Z,98983.96
2023-05-09T02:10:26.840Z,98981.65
2023-05-09T02:11:35.098Z,98987.39
2023-05-09T02:12:42.588Z,98987.73
2023-05-09T02:13:49.375Z,98987.89
2023-05-09T02:14:57.893Z,98985.46
2023-05-09T02:16:06.465Z,98985.02
2023-05-09T02:17:18.567Z,98990.71
2023-05-09T02:18:25.621Z,98989.00
2023-05-09T02:19:33.339Z,98988.89
2023-05-09T02:20:41.934Z,98985.58
2023-05-09T02:21:48.876Z,98984.50
2023-05-09T02:22:57.000Z,98984.92
2023-05-09T02:24:04.972Z,98984.40
2023-05-09T02:25:16.376Z,98986.55
2023-05-09T02:26:25.448Z,98984.13
2023-05-09T02:27:34.332Z,98982.56
2023-05-09T02:28:41.188Z,98981.02
2023-05-09T02:29:50.631Z,98981.70
2023-05-09T02:31:00.458Z,98981.17
2023-05-09T02:32:13.384Z,98980.41
2023-05-09T02:33:22.192Z,98978.86
2023-05-09T02:34:29.876Z,98976.27
2023-05-09T02:35:37.524Z,98978.42
2023-05-09T02:36:46.233Z,98977.41
2023-05-09T02:37:53.596Z,98978.59
2023-05-09T02:39:01.135Z,98980.04
2023-05-09T02:40:13.916Z,98978.95
2023-05-09T02:41:21.826Z,98977.89
2023-05-09T02:42:32.168Z,98979.13
2023-05-09T02:43:40.425Z,98977.35
2023-05-09T02:44:47.785Z,98977.98
2023-05-09T02:45:57.734Z,98981.05
2023-05-09T02:47:05.812Z,98980.84
2023-05-09T02:48:14.003Z,98982.83
2023-05-09T02:49:31.616Z,98981.59
2023-05-09T02:50:40.921Z,98984.55
2023-05-09T02:51:48.598Z,98988.63
2023-05-09T02:52:56.074Z,98989.92
2023-05-09T02:54:03.484Z,98990.83
2023-05-09T02:55:11.643Z,98989.48
2023-05-09T02:56:20.684Z,98994.05
2023-05-09T02:57:28.894Z,98995.06
2023-05-09T02:58:35.569Z,98994.58
2023-05-09T02:59:43.695Z,98995.77
2023-05-09T03:00:52.062Z,98993.30
2023-05-09T03:01:59.241Z,98996.36
2023-05-09T03:03:06.326Z,98994.89
2023-05-09T03:04:13.997Z,98996.64
2023-05-09T03:05:20.781Z,98998.41
2023-05-09T03:06:27.185Z,98997.55
2023-05-09T03:07:33.816Z,99000.45
2023-05-09T03:08:40.432Z,98999.36
2023-05-09T03:09:48.063Z,98999.86
2023-05-09T03:10:55.377Z,99000.77
2023-05-09T03:12:02.520Z,99006.63
2023-05-09T03:13:10.422Z,99002.91
2023-05-09T03:14:17.512Z,99001.95
2023-05-09T03:15:26.943Z,99007.05
2023-05-09T03:16:35.438Z,99011.17
2023-05-09T03:17:43.573Z,99013.27
2023-05-09T03:18:51.123Z,99012.40
2023-05-09T03:19:59.381Z,99013.77
2023-05-09T03:21:07.731Z,99016.34
2023-05-09T03:22:15.733Z,99017.77
2023-05-09T03:23:33.985Z,99016.27
2023-05-09T03:24:43.510Z,99016.60
2023-05-09T03:25:50.951Z,99018.15
2023-05-09T03:26:58.292Z,99017.98
2023-05-09T03:28:06.624Z,99020.30
2023-05-09T03:29:13.802Z,99019.77
2023-05-09T03:30:21.965Z,99022.58
2023-05-09T03:31:29.515Z,99018.64
2023-05-09T03:32:37.375Z,99016.50
2023-05-09T03:33:44.870Z,99020.58
2023-05-09T03:34:52.555Z,99017.63
2023-05-09T03:36:00.259Z,99021.48
2023-05-09T03:37:08.152Z,99023.64
2023-05-09T03:38:19.166Z,99022.08
2023-05-09T03:39:26.643Z,99022.77
2023-05-09T03:40:36.459Z,99027.13
2023-05-09T03:41:46.876Z,99023.97
2023-05-09T03:42:54.075Z,99023.33
2023-05-09T03:44:01.216Z,99023.64
2023-05-09T03:45:09.422Z,99023.48
2023-05-09T03:46:17.258Z,99017.58
2023-05-09T03:47:26.054Z,99017.35
2023-05-09T03:48:33.021Z,99020.36
2023-05-09T03:49:41.056Z,99021.11
2023-05-09T03:50:48.618Z,99020.42
2023-05-09T03:51:55.787Z,99022.20
2023-05-09T03:53:04.742Z,99024.34
2023-05-09T03:54:12.070Z,99027.20
2023-05-09T03:55:21.224Z,99024.71
2023-05-09T03:56:29.539Z,99023.70
2023-05-09T03:57:37.114Z,99028.64
2023-05-09T03:58:44.860Z,99028.31
2023-05-09T03:59:53.311Z,99029.12
2023-05-09T04:01:00.860Z,99033.85
2023-05-09T04:02:08.818Z,99049.04
2023-05-09T04:03:16.164Z,99050.82
2023-05-09T04:04:27.215Z,99051.41
2023-05-09T04:05:36.092Z,99053.71
2023-05-09T04:06:43.997Z,99057.10
2023-05-09T04:07:52.045Z,99056.92
2023-05-09T04:09:00.012Z,99059.56
2023-05-09T04:10:11.916Z,99061.60
2023-05-09T04:11:20.173Z,99062.30
2023-05-09T04:12:28.476Z,99059.02
2023-05-09T04:13:35.933Z,99062.57
2023-05-09T04:14:48.901Z,99060.10
2023-05-09T04:15:55.841Z,99061.17
2023-05-09T04:17:03.024Z,99065.77
2023-05-09T04:18:10.563Z,99066.45
2023-05-09T04:19:18.316Z,99066.02
2023-05-09T04:20:26.595Z,99067.41
2023-05-09T04:21:34.823Z,99064.25
2023-05-09T04:22:44.840Z,99067.40
2023-05-09T04:23:53.914Z,99069.94
2023-05-09T04:25:07.186Z,99065.00
2023-05-09T04:26:15.625Z,99066.13
2023-05-09T04:27:23.817Z,99066.12
2023-05-09T04:28:32.850Z,99065.59
2023-05-09T04:29:40.915Z,99065.74
2023-05-09T04:30:48.192Z,99065.27
2023-05-09T04:31:55.912Z,99066.66
2023-05-09T04:33:04.900Z,99067.89
2023-05-09T04:34:13.049Z,99069.33
2023-05-09T04:35:21.370Z,99067.98
2023-05-09T04:36:29.095Z,99069.39
2023-05-09T04:37:37.565Z,99068.82
2023-05-09T04:38:44.912Z,99067.37
2023-05-09T04:39:54.541Z,99067.84
2023-05-09T04:41:06.513Z,99065.00
2023-05-09T04:42:13.992Z,99064.78
2023-05-09T04:43:22.045Z,99062.53
2023-05-09T04:44:30.226Z,99062.58
2023-05-09T04:45:38.082Z,99066.65
2023-05-09T04:46:45.381Z,99063.59
2023-05-09T04:47:52.845Z,99063.38
2023-05-09T04:49:00.814Z,99063.59
2023-05-09T04:50:09.438Z,99058.55
2023-05-09T04:51:16.942Z,99059.62
2023-05-09T04:52:26.400Z,99061.02
2023-05-09T04:53:35.787Z,99059.99
2023-05-09T04:54:44.234Z,99061.61
2023-05-09T04:55:51.564Z,99059.62
2023-05-09T04:57:09.975Z,99056.02
2023-05-09T04:58:22.061Z,99058.44
2023-05-09T04:59:30.543Z,99059.67
2023-05-09T05:00:38.475Z,99058.70
2023-05-09T05:01:47.823Z,99059.61
2023-05-09T05:02:55.122Z,99062.09
2023-05-09T05:04:03.872Z,99062.84
2023-05-09T05:05:13.313Z,99060.64
2023-05-09T05:06:22.456Z,99060.95
2023-05-09T05:07:30.517Z,99059.83
2023-05-09T05:08:38.406Z,99065.73
2023-05-09T05:09:45.878Z,99063.59
2023-05-09T05:10:53.293Z,99065.27
2023-05-09T05:12:02.933Z,99067.03
2023-05-09T05:13:12.017Z,99066.98
2023-05-09T05:14:20.928Z,99066.60
2023-05-09T05:15:31.501Z,99066.11
2023-05-09T05:16:39.272Z,99066.87
2023-05-09T05:17:47.189Z,99072.34
2023-05-09T05:18:56.592Z,99069.13
2023-05-09T05:20:04.429Z,99070.30
2023-05-09T05:21:11.598Z,99071.59
2023-05-09T05:22:19.087Z,99070.04
2023-05-09T05:23:27.243Z,99067.83
2023-05-09T05:24:35.140Z,99068.00
2023-05-09T05:25:42.617Z,99066.38
2023-05-09T05:26:50.285Z,99065.31
2023-05-09T05:27:58.495Z,99064.88
2023-05-09T05:29:06.722Z,99065.62
2023-05-09T05:30:17.072Z,99063.80
2023-05-09T05:31:25.282Z,99065.03
2023-05-09T05:32:32.632Z,99066.29
2023-05-09T05:33:40.897Z,99067.09
2023-05-09T05:34:48.850Z,99069.67
2023-05-09T05:35:56.934Z,99069.70
2023-05-09T05:37:04.717Z,99067.39
2023-05-09T05:38:12.334Z,99068.52
2023-05-09T05:39:19.898Z,99069.04
2023-05-09T05:40:27.475Z,99075.44
2023-05-09T05:41:35.658Z,99076.61
2023-05-09T05:42:45.546Z,99074.51
2023-05-09T05:43:54.523Z,99074.16
2023-05-09T05:45:05.891Z,99076.05
2023-05-09T05:46:16.106Z,99075.23
2023-05-09T05:47:23.647Z,99074.24
2023-05-09T05:48:32.242Z,99075.48
2023-05-09T05:49:39.776Z,99074.49
2023-05-09T05:50:47.987Z,99070.99
2023-05-09T05:51:57.905Z,99069.04
2023-05-09T05:53:06.958Z,99068.10
2023-05-09T05:54:14.855Z,99072.30
2023-05-09T05:55:22.091Z,99071.59
2023-05-09T05:56:30.586Z,99072.11
2023-05-09T05:57:39.269Z,99071.29
2023-05-09T05:58:48.140Z,99071.00
2023-05-09T05:59:57.495Z,99068.81
2023-05-09T06:01:05.099Z,99067.98
2023-05-09T06:02:12.317Z,99067.77
2023-05-09T06:03:19.765Z,99066.98
2023-05-09T06:04:41.054Z,99067.02
2023-05-09T06:05:50.148Z,99066.41
2023-05-09T06:06:58.622Z,99068.59
2023-05-09T06:08:06.076Z,99067.99
2023-05-09T06:09:14.058Z,99066.67
2023-05-09T06:10:21.431Z,99065.48
2023-05-09T06:11:29.661Z,99062.14
2023-05-09T06:12:39.504Z,99059.43
2023-05-09T06:13:47.340Z,99060.22
2023-05-09T06:14:55.253Z,99060.96
2023-05-09T06:16:15.210Z,99062.07
2023-05-09T06:17:28.098Z,99059.44
2023-05-09T06:18:37.641Z,99061.41
2023-05-09T06:19:46.500Z,99062.35
2023-05-09T06:20:56.332Z,99062.23
2023-05-09T06:22:05.307Z,99059.05
2023-05-09T06:23:12.278Z,99061.14
2023-05-09T06:24:31.889Z,99060.48
2023-05-09T06:25:43.474Z,99061.97
2023-05-09T06:26:54.857Z,99061.69
2023-05-09T06:28:02.202Z,99064.20
2023-05-09T06:29:09.120Z,99067.48
2023-05-09T06:30:25.363Z,99065.61
2023-05-09T06:31:37.337Z,99067.91
2023-05-09T06:32:45.710Z,99066.26
2023-05-09T06:33:52.565Z,99068.48
2023-05-09T06:35:00.527Z,99070.90
2023-05-09T06:36:07.700Z,99072.34
2023-05-09T06:37:15.091Z,99073.56
2023-05-09T06:38:22.715Z,99074.69
2023-05-09T06:39:30.450Z,99075.29
2023-05-09T06:40:38.938Z,99075.40
2023-05-09T06:41:46.533Z,99080.00
2023-05-09T06:42:59.843Z,99079.95
2023-05-09T06:44:08.275Z,99083.60
2023-05-09T06:45:15.058Z,99084.40
2023-05-09T06:46:22.684Z,99086.86
2023-05-09T06:47:30.097Z,99086.79
2023-05-09T06:48:37.280Z,99086.42
2023-05-09T06:49:44.202Z,99090.50
2023-05-09T06:50:51.664Z,99089.63
2023-05-09T06:51:58.813Z,99091.52
2023-05-09T06:53:05.814Z,99092.20
2023-05-09T06:54:12.891Z,99092.25
2023-05-09T06:55:19.749Z,99090.36
2023-05-09T06:56:28.103Z,99090.77
2023-05-09T06:57:35.243Z,99090.84
2023-05-09T06:58:42.742Z,99092.35
2023-05-09T06:59:49.967Z,99093.05
2023-05-09T07:00:57.781Z,99091.69
2023-05-09T07:02:04.388Z,99093.41
2023-05-09T07:03:14.851Z,99095.89
2023-05-09T07:04:21.470Z,99093.67
2023-05-09T07:05:28.283Z,99094.91
2023-05-09T07:06:35.972Z,99091.85
2023-05-09T07:07:43.081Z,99089.10
2023-05-09T07:08:50.505Z,99091.29
2023-05-09T07:10:07.318Z,99088.06
2023-05-09T07:11:17.955Z,99092.09
2023-05-09T07:12:28.034Z,99089.18
2023-05-09T07:13:34.850Z,99087.95
2023-05-09T07:14:42.992Z,99083.48
2023-05-09T07:15:50.295Z,99085.42
2023-05-09T07:17:13.761Z,99080.90
2023-05-09T07:18:25.554Z,99083.63
2023-05-09T07:19:33.324Z,99085.14
2023-05-09T07:20:41.594Z,99087.13
2023-05-09T07:21:49.231Z,99086.16
2023-05-09T07:22:56.781Z,99087.02
2023-05-09T07:24:03.706Z,99084.33
2023-05-09T07:25:11.873Z,99085.02
2023-05-09T07:26:18.577Z,99084.48
2023-05-09T07:27:26.267Z,99081.41
2023-05-09T07:28:33.238Z,99081.20
2023-05-09T07:29:40.330Z,99085.34
2023-05-09T07:30:52.789Z,99081.52
2023-05-09T07:32:01.214Z,99077.75
2023-05-09T07:33:09.440Z,99076.84
2023-05-09T07:34:18.411Z,99076.84
2023-05-09T07:35:26.565Z,99073.55
2023-05-09T07:36:35.474Z,99073.94
2023-05-09T07:37:42.628Z,99072.75
2023-05-09T07:38:52.401Z,99069.42
2023-05-09T07:39:59.092Z,99069.48
2023-05-09T07:41:06.105Z,99070.13
2023-05-09T07:42:13.520Z,99064.14
2023-05-09T07:43:20.420Z,99064.25
2023-05-09T07:44:27.105Z,99063.71
2023-05-09T07:45:35.200Z,99064.10
2023-05-09T07:46:43.621Z,99063.88
2023-05-09T07:47:51.719Z,99063.17
2023-05-09T07:48:58.592Z,99064.95
2023-05-09T07:50:07.031Z,99066.23
2023-05-09T07:51:14.329Z,99064.20
2023-05-09T07:52:21.522Z,99063.98
2023-05-09T07:53:28.741Z,99062.53
2023-05-09T07:54:36.677Z,99058.16
2023-05-09T07:55:46.653Z,99060.64
2023-05-09T07:56:54.303Z,99059.61
2023-05-09T07:58:02.423Z,99058.27
2023-05-09T07:59:09.971Z,99054.66
2023-05-09T08:00:18.119Z,99054.45
2023-05-09T08:01:28.221Z,99055.25
2023-05-09T08:02:35.514Z,99051.86
2023-05-09T08:03:42.837Z,99052.49
2023-05-09T08:04:53.614Z,99053.25
2023-05-09T08:06:01.313Z,99052.08
2023-05-09T08:07:10.523Z,99049.55
2023-05-09T08:08:16.832Z,99050.79
2023-05-09T08:09:24.695Z,99049.71
2023-05-09T08:10:33.379Z,99046.29
2023-05-09T08:11:41.240Z,99049.36
2023-05-09T08:12:48.128Z,99047.26
2023-05-09T08:13:55.380Z,99047.31
2023-05-09T08:15:02.916Z,99047.63
2023-05-09T08:16:10.380Z,99041.71
2023-05-09T08:17:17.842Z,99042.79
2023-05-09T08:18:24.660Z,99038.42
2023-05-09T08:19:32.057Z,99037.35
2023-05-09T08:20:39.024Z,99037.06
2023-05-09T08:21:45.905Z,99035.52
2023-05-09T08:22:52.703Z,99034.38
2023-05-09T08:24:00.066Z,99032.07
2023-05-09T08:25:08.778Z,99034.80
2023-05-09T08:26:16.097Z,99035.50
2023-05-09T08:27:23.089Z,99031.95
2023-05-09T08:28:29.861Z,99035.76
2023-05-09T08:29:37.037Z,99029.08
2023-05-09T08:30:43.686Z,99029.41
2023-05-09T08:31:50.587Z,99028.65
2023-05-09T08:32:58.189Z,99028.70
2023-05-09T08:34:05.034Z,99027.95
2023-05-09T08:35:12.094Z,99025.42
2023-05-09T08:36:18.706Z,99023.65
2023-05-09T08:37:25.246Z,99024.19
2023-05-09T08:38:32.089Z,99027.69
2023-05-09T08:39:38.861Z,99022.48
2023-05-09T08:40:49.611Z,99026.17
2023-05-09T08:42:03.130Z,99026.88
2023-05-09T08:43:13.176Z,99025.21
2023-05-09T08:44:19.638Z,99025.65
2023-05-09T08:45:28.750Z,99028.16
2023-05-09T08:46:41.887Z,99026.61
2023-05-09T08:47:52.694Z,99026.02
2023-05-09T08:49:00.455Z,99020.10
2023-05-09T08:50:07.845Z,99021.88
2023-05-09T08:51:15.203Z,99021.17
2023-05-09T08:52:22.594Z,99019.36
2023-05-09T08:53:30.051Z,99019.14
2023-05-09T08:54:36.921Z,99017.95
2023-05-09T08:55:44.042Z,99017.73
2023-05-09T08:56:52.716Z,99015.20
2023-05-09T08:58:01.384Z,99012.67
2023-05-09T08:59:09.454Z,99009.76
2023-05-09T09:00:18.646Z,99012.23
2023-05-09T09:01:28.406Z,99011.38
2023-05-09T09:02:36.609Z,99008.67
2023-05-09T09:03:48.707Z,99009.55
2023-05-09T09:04:57.486Z,99007.39
2023-05-09T09:06:04.108Z,99006.74
2023-05-09T09:07:11.000Z,99004.38
2023-05-09T09:08:18.460Z,99005.02
2023-05-09T09:09:25.985Z,99000.30
2023-05-09T09:10:33.842Z,99000.61
2023-05-09T09:11:41.536Z,98997.92
2023-05-09T09:12:50.245Z,98997.91
2023-05-09T09:13:58.044Z,98994.31
2023-05-09T09:15:07.103Z,98994.95
2023-05-09T09:16:16.556Z,98994.80
2023-05-09T09:17:26.918Z,98997.02
2023-05-09T09:18:34.876Z,98996.86
2023-05-09T09:19:42.633Z,98997.72
2023-05-09T09:21:08.129Z,98996.48
2023-05-09T09:22:17.108Z,98996.55
2023-05-09T09:23:23.709Z,98996.38
2023-05-09T09:24:30.285Z,98993.64
2023-05-09T09:25:37.300Z,98996.23
2023-05-09T09:26:48.722Z,98994.52
2023-05-09T09:27:55.362Z,98996.33
2023-05-09T09:29:02.124Z,98992.79
2023-05-09T09:30:12.883Z,98993.75
2023-05-09T09:31:23.633Z,98993.16
2023-05-09T09:32:37.117Z,98990.03
2023-05-09T09:33:43.973Z,98991.16
2023-05-09T09:34:53.775Z,98990.84
2023-05-09T09:36:01.431Z,98992.23
2023-05-09T09:37:10.050Z,98993.27
2023-05-09T09:38:17.947Z,98991.86
2023-05-09T09:39:26.347Z,98992.51
2023-05-09T09:40:34.003Z,98993.95
2023-05-09T09:41:41.533Z,98994.75
2023-05-09T09:42:50.492Z,98993.52
2023-05-09T09:43:59.637Z,98991.69
2023-05-09T09:45:15.593Z,98990.98
2023-05-09T09:46:22.607Z,98992.12
2023-05-09T09:47:34.160Z,98993.09
2023-05-09T09:48:47.099Z,98992.33
2023-05-09T09:49:55.223Z,98991.09
2023-05-09T09:51:13.237Z,98991.31
2023-05-09T09:52:26.795Z,98991.37
2023-05-09T09:53:41.630Z,98991.65
2023-05-09T09:54:49.512Z,98991.27
2023-05-09T09:55:57.450Z,98989.33
2023-05-09T09:57:04.282Z,98992.50
2023-05-09T09:58:20.801Z,98995.52
2023-05-09T09:59:28.848Z,98996.42
2023-05-09T10:00:36.493Z,98999.43
2023-05-09T10:02:07.633Z,98997.77
2023-05-09T10:03:21.527Z,98999.34
2023-05-09T10:04:30.540Z,99001.80
2023-05-09T10:05:40.178Z,99000.73
2023-05-09T10:07:01.932Z,99003.11
2023-05-09T10:08:11.366Z,99002.63
2023-05-09T10:09:18.395Z,99000.00
2023-05-09T10:10:27.379Z,99001.02
2023-05-09T10:11:35.137Z,98998.17
2023-05-09T10:12:43.127Z,99000.18
2023-05-09T10:13:50.600Z,98999.42
2023-05-09T10:14:59.030Z,98998.35
2023-05-09T10:16:06.377Z,98996.09
2023-05-09T10:17:15.640Z,98994.09
2023-05-09T10:18:26.729Z,98992.48
2023-05-09T10:19:34.674Z,98991.50
2023-05-09T10:20:42.485Z,98990.58
2023-05-09T10:21:54.307Z,98989.89
2023-05-09T10:23:03.847Z,98990.36
2023-05-09T10:24:12.366Z,98989.51
2023-05-09T10:25:23.369Z,98986.44
2023-05-09T10:26:32.159Z,98985.09
2023-05-09T10:27:38.999Z,98988.70
2023-05-09T10:28:47.850Z,98985.30
2023-05-09T10:30:06.414Z,98985.69
2023-05-09T10:31:24.922Z,98986.76
2023-05-09T10:32:53.566Z,98985.46
2023-05-09T10:34:03.700Z,98984.23
2023-05-09T10:35:12.220Z,98982.77
2023-05-09T10:36:23.406Z,98977.30
2023-05-09T10:37:33.751Z,98978.00
2023-05-09T10:38:40.934Z,98977.89
2023-05-09T10:39:47.928Z,98978.91
2023-05-09T10:40:55.282Z,98983.15
2023-05-09T10:42:02.077Z,98984.48
2023-05-09T10:43:10.166Z,98977.91
2023-05-09T10:44:17.098Z,98980.29
2023-05-09T10:45:24.081Z,98980.16
2023-05-09T10:46:31.690Z,98981.02
2023-05-09T10:47:38.960Z,98982.48
2023-05-09T10:48:46.063Z,98990.88
2023-05-09T10:49:53.152Z,98987.65
2023-05-09T10:51:01.075Z,98986.73
2023-05-09T10:52:08.273Z,98986.89
2023-05-09T10:53:17.736Z,98988.66
2023-05-09T10:54:31.389Z,98990.23
2023-05-09T10:55:53.162Z,98991.30
2023-05-09T10:57:02.097Z,98988.23
2023-05-09T10:58:31.863Z,98990.22
2023-05-09T10:59:45.453Z,98985.27
2023-05-09T11:00:53.483Z,98984.73
2023-05-09T11:02:03.016Z,98989.09
2023-05-09T11:03:11.076Z,98994.00
2023-05-09T11:04:19.309Z,98995.89
2023-05-09T11:05:25.898Z,98989.70
2023-05-09T11:06:56.479Z,98991.52
2023-05-09T11:08:26.713Z,98987.66
2023-05-09T11:09:42.470Z,98985.25
2023-05-09T11:10:49.146Z,98983.15
2023-05-09T11:12:00.916Z,98986.10
2023-05-09T11:13:07.981Z,98983.04
2023-05-09T11:14:31.567Z,98983.84
2023-05-09T11:15:38.977Z,98982.76
2023-05-09T11:17:07.918Z,98985.77
2023-05-09T11:18:15.535Z,98987.33
2023-05-09T11:19:55.639Z,98987.96
2023-05-09T11:21:12.723Z,98993.94
2023-05-09T11:22:32.010Z,98995.02
2023-05-09T11:23:40.578Z,98999.26
2023-05-09T11:24:53.476Z,99000.34
2023-05-09T11:26:08.400Z,99001.57
2023-05-09T11:27:30.316Z,99002.39
2023-05-09T11:28:39.158Z,99005.02
2023-05-09T11:29:56.897Z,99001.19
2023-05-09T11:31:18.896Z,98998.51
2023-05-09T11:32:33.741Z,98978.91
2023-05-09T11:33:40.737Z,98978.06
2023-05-09T11:34:47.309Z,98975.74
2023-05-09T11:36:21.378Z,98981.23
2023-05-09T11:37:28.420Z,98982.16
2023-05-09T11:38:45.964Z,98985.55
2023-05-09T11:40:01.604Z,98991.47
2023-05-09T11:41:08.174Z,98993.67
2023-05-09T11:42:15.662Z,98995.83
2023-05-09T11:43:22.294Z,98995.70
2023-05-09T11:44:29.704Z,99002.86
2023-05-09T11:45:36.453Z,99001.83
2023-05-09T11:46:44.304Z,99001.09
2023-05-09T11:47:53.402Z,99002.16
2023-05-09T11:49:01.576Z,99002.70
2023-05-09T11:50:13.544Z,99003.19
2023-05-09T11:51:20.441Z,99001.37
2023-05-09T11:52:27.778Z,98998.67
2023-05-09T11:53:35.480Z,98998.45
2023-05-09T11:54:43.069Z,98997.48
2023-05-09T11:55:52.137Z,98999.52
2023-05-09T11:57:01.856Z,98998.17
2023-05-09T11:58:09.404Z,98997.32
2023-05-09T11:59:17.225Z,98994.63
2023-05-09T12:00:26.098Z,98994.89
2023-05-09T12:01:33.939Z,98996.20
2023-05-09T12:02:40.971Z,99000.59
2023-05-09T12:03:48.816Z,99006.30
2023-05-09T12:04:57.848Z,99003.66
2023-05-09T12:06:05.895Z,99009.04
2023-05-09T12:07:15.156Z,99006.95
2023-05-09T12:08:21.591Z,99005.98
2023-05-09T12:09:34.685Z,99007.29
2023-05-09T12:10:42.292Z,99006.92
2023-05-09T12:11:52.249Z,99008.00
2023-05-09T12:12:59.205Z,99008.92
2023-05-09T12:14:07.144Z,99007.02
2023-05-09T12:15:15.250Z,99006.45
2023-05-09T12:16:23.383Z,99006.80
2023-05-09T12:17:31.847Z,99011.86
2023-05-09T12:18:39.024Z,99013.11
2023-05-09T12:19:47.504Z,99013.80
2023-05-09T12:20:54.434Z,99013.52
2023-05-09T12:22:02.642Z,99012.51
2023-05-09T12:23:11.149Z,99014.28
2023-05-09T12:24:23.168Z,99015.89
2023-05-09T12:25:30.909Z,99014.40
2023-05-09T12:26:38.430Z,99014.61
2023-05-09T12:27:46.541Z,99017.73
2023-05-09T12:28:55.320Z,99014.69
2023-05-09T12:30:04.287Z,99014.77
2023-05-09T12:31:11.017Z,99017.23
2023-05-09T12:32:18.174Z,99016.45
2023-05-09T12:33:26.067Z,99018.42
2023-05-09T12:34:33.591Z,99020.96
2023-05-09T12:35:42.441Z,99021.84
2023-05-09T12:36:52.580Z,99020.41
2023-05-09T12:38:04.121Z,99018.86
2023-05-09T12:39:12.672Z,99016.95
2023-05-09T12:40:19.760Z,99013.33
2023-05-09T12:42:38.935Z,99011.31
2023-05-09T12:43:50.308Z,99011.50
2023-05-09T12:44:58.542Z,99011.23
2023-05-09T12:46:06.087Z,99009.85
2023-05-09T12:47:12.879Z,99006.69
2023-05-09T12:48:20.215Z,99006.44
2023-05-09T12:49:27.992Z,99005.83
2023-05-09T12:50:37.500Z,99002.61
2023-05-09T12:51:51.935Z,99004.84
2023-05-09T12:53:03.370Z,99007.66
2023-05-09T12:54:14.032Z,99010.84
2023-05-09T12:55:21.796Z,99013.94
2023-05-09T12:56:29.693Z,99017.39
2023-05-09T12:57:37.021Z,99018.87
2023-05-09T12:58:53.473Z,99020.27
2023-05-09T13:00:01.968Z,99019.80
2023-05-09T13:01:09.200Z,99018.53
2023-05-09T13:02:16.000Z,99017.59
2023-05-09T13:03:27.892Z,99018.28
2023-05-09T13:04:35.194Z,99019.33
2023-05-09T13:05:42.640Z,99018.39
2023-05-09T13:06:57.148Z,99020.10
2023-05-09T13:08:04.950Z,99020.59
2023-05-09T13:09:15.035Z,99023.14
2023-05-09T13:10:29.612Z,99025.73
2023-05-09T13:11:39.367Z,99025.90
2023-05-09T13:12:46.930Z,99027.57
2023-05-09T13:13:53.922Z,99027.00
2023-05-09T13:15:00.965Z,99024.70
2023-05-09T13:16:10.056Z,99028.35
2023-05-09T13:17:17.762Z,99028.06
2023-05-09T13:18:25.865Z,99027.00
2023-05-09T13:19:32.765Z,99028.57
2023-05-09T13:20:39.907Z,99025.57
2023-05-09T13:21:48.733Z,99023.59
2023-05-09T13:22:57.209Z,99023.95
2023-05-09T13:24:06.028Z,99025.36
2023-05-09T13:25:13.485Z,99021.94
2023-05-09T13:26:20.875Z,99023.94
2023-05-09T13:27:29.197Z,99021.73
2023-05-09T13:28:36.857Z,99022.28
2023-05-09T13:29:45.322Z,99024.92
2023-05-09T13:30:53.051Z,99028.25
2023-05-09T13:32:01.615Z,99026.48
2023-05-09T13:33:24.497Z,99028.95
2023-05-09T13:34:33.146Z,99033.91
2023-05-09T13:35:39.807Z,99030.16
2023-05-09T13:36:46.836Z,99028.12